createdAt,value
2023-04-29T00:02:24.221Z,6.87
2023-04-29T00:04:50.735Z,6.40
2023-04-29T00:07:17.313Z,6.73
2023-04-29T00:09:43.896Z,6.37
2023-04-29T00:12:10.823Z,6.43
2023-04-29T00:14:37.202Z,6.30
2023-04-29T00:17:03.777Z,6.90
2023-04-29T00:19:30.184Z,6.50
2023-04-29T00:21:56.447Z,6.60
2023-04-29T00:24:22.755Z,6.30
2023-04-29T00:26:48.999Z,6.60
2023-04-29T00:29:15.230Z,6.47
2023-04-29T00:31:41.791Z,6.97
2023-04-29T00:34:08.057Z,7.67
2023-04-29T00:36:34.297Z,7.13
2023-04-29T00:39:00.578Z,6.20
2023-04-29T00:41:26.955Z,7.10
2023-04-29T00:43:53.212Z,7.17
2023-04-29T00:46:19.835Z,7.00
2023-04-29T00:48:46.170Z,7.00
2023-04-29T00:51:13.231Z,7.07
2023-04-29T00:53:39.515Z,7.47
2023-04-29T00:56:07.504Z,6.83
2023-04-29T00:58:35.374Z,6.93
2023-04-29T01:01:02.152Z,7.10
2023-04-29T01:03:29.166Z,7.07
2023-04-29T01:06:13.066Z,6.80
2023-04-29T01:08:48.682Z,7.50
2023-04-29T01:11:16.693Z,7.63
2023-04-29T01:13:46.132Z,7.63
2023-04-29T01:16:17.840Z,8.20
2023-04-29T01:18:50.131Z,7.27
2023-04-29T01:21:16.429Z,8.07
2023-04-29T01:23:42.683Z,8.30
2023-04-29T01:26:09.183Z,8.40
2023-04-29T01:28:42.847Z,8.20
2023-04-29T01:31:27.707Z,8.53
2023-04-29T01:34:08.362Z,8.50
2023-04-29T01:36:57.442Z,8.57
2023-04-29T01:39:33.515Z,8.97
2023-04-29T01:42:05.761Z,8.77
2023-04-29T01:44:32.783Z,9.33
2023-04-29T01:46:59.590Z,9.87
2023-04-29T01:49:26.472Z,9.60
2023-04-29T01:51:52.767Z,9.60
2023-04-29T01:54:19.100Z,10.07
2023-04-29T01:56:45.495Z,9.77
2023-04-29T01:59:11.959Z,11.00
2023-04-29T02:01:38.269Z,10.53
2023-04-29T02:04:04.733Z,10.60
2023-04-29T02:06:32.248Z,10.80
2023-04-29T02:08:58.714Z,11.27
2023-04-29T02:11:25.056Z,10.90
2023-04-29T02:13:51.316Z,10.50
2023-04-29T02:16:17.893Z,10.90
2023-04-29T02:18:44.239Z,11.30
2023-04-29T02:21:10.510Z,11.13
2023-04-29T02:23:36.869Z,11.17
2023-04-29T02:26:06.182Z,11.63
2023-04-29T02:28:33.211Z,11.47
2023-04-29T02:30:59.522Z,12.10
2023-04-29T02:33:26.038Z,11.57
2023-04-29T02:35:52.330Z,12.30
2023-04-29T02:38:18.673Z,11.57
2023-04-29T02:40:45.610Z,12.33
2023-04-29T02:43:12.245Z,12.00
2023-04-29T02:45:39.089Z,12.77
2023-04-29T02:48:05.881Z,11.43
2023-04-29T02:50:32.921Z,12.60
2023-04-29T02:52:59.245Z,12.83
2023-04-29T02:55:26.070Z,12.10
2023-04-29T02:57:52.890Z,13.03
2023-04-29T03:00:19.451Z,12.47
2023-04-29T03:02:45.826Z,13.80
2023-04-29T03:05:12.204Z,13.17
2023-04-29T03:07:38.748Z,13.27
2023-04-29T03:10:05.417Z,14.17
2023-04-29T03:12:31.726Z,12.97
2023-04-29T03:14:57.991Z,13.23
2023-04-29T03:17:24.356Z,14.20
2023-04-29T03:19:51.411Z,14.10
2023-04-29T03:22:18.032Z,14.23
2023-04-29T03:24:44.671Z,14.70
2023-04-29T03:27:11.307Z,14.97
2023-04-29T03:29:37.784Z,15.23
2023-04-29T03:32:04.129Z,15.80
2023-04-29T03:34:30.430Z,15.47
2023-04-29T03:36:57.449Z,15.87
2023-04-29T03:39:32.971Z,15.13
2023-04-29T03:41:59.765Z,14.90
2023-04-29T03:44:26.265Z,15.30
2023-04-29T03:46:52.570Z,15.80
2023-04-29T03:49:18.815Z,15.23
2023-04-29T03:51:47.907Z,15.93
2023-04-29T03:54:14.272Z,15.67
2023-04-29T03:56:41.206Z,16.37
2023-04-29T03:59:07.531Z,15.73
2023-04-29T04:01:33.853Z,15.73
2023-04-29T04:04:00.468Z,15.60
2023-04-29T04:06:26.978Z,17.33
2023-04-29T04:08:53.275Z,17.07
2023-04-29T04:11:19.569Z,16.83
2023-04-29T04:13:45.865Z,16.43
2023-04-29T04:16:12.281Z,16.80
2023-04-29T04:18:38.832Z,16.93
2023-04-29T04:21:05.971Z,16.30
2023-04-29T04:23:32.224Z,17.10
2023-04-29T04:25:58.535Z,17.07
2023-04-29T04:28:24.829Z,17.77
2023-04-29T04:30:51.126Z,17.57
2023-04-29T04:33:17.507Z,17.43
2023-04-29T04:35:43.988Z,17.30
2023-04-29T04:38:11.420Z,17.53
2023-04-29T04:40:41.122Z,17.43
2023-04-29T04:43:07.376Z,18.30
2023-04-29T04:45:34.228Z,17.67
2023-04-29T04:48:00.771Z,18.00
2023-04-29T04:50:30.240Z,18.20
2023-04-29T04:52:56.857Z,19.03
2023-04-29T04:55:23.443Z,17.83
2023-04-29T04:57:50.309Z,18.87
2023-04-29T05:00:17.474Z,19.23
2023-04-29T05:02:44.088Z,18.30
2023-04-29T05:05:10.533Z,18.97
2023-04-29T05:07:36.876Z,19.17
2023-04-29T05:10:03.484Z,18.90
2023-04-29T05:12:31.017Z,18.53
2023-04-29T05:14:57.638Z,18.87
2023-04-29T05:17:23.926Z,18.97
2023-04-29T05:19:50.451Z,18.73
2023-04-29T05:22:17.351Z,18.87
2023-04-29T05:24:43.627Z,19.23
2023-04-29T05:27:09.883Z,19.83
2023-04-29T05:29:36.596Z,18.90
2023-04-29T05:32:02.970Z,19.93
2023-04-29T05:34:29.343Z,19.57
2023-04-29T05:36:55.653Z,19.90
2023-04-29T05:39:22.883Z,19.77
2023-04-29T05:41:49.224Z,18.53
2023-04-29T05:44:15.628Z,19.77
2023-04-29T05:46:41.950Z,19.20
2023-04-29T05:49:09.033Z,18.47
2023-04-29T05:51:35.437Z,18.77
2023-04-29T05:54:01.727Z,20.47
2023-04-29T05:56:28.058Z,19.73
2023-04-29T05:58:54.410Z,18.90
2023-04-29T06:01:20.694Z,19.33
2023-04-29T06:03:47.189Z,19.57
2023-04-29T06:06:13.958Z,19.70
2023-04-29T06:08:43.598Z,19.50
2023-04-29T06:11:10.785Z,18.80
2023-04-29T06:13:37.020Z,19.43
2023-04-29T06:16:03.672Z,18.90
2023-04-29T06:18:30.046Z,19.73
2023-04-29T06:20:56.279Z,19.10
2023-04-29T06:23:22.527Z,19.47
2023-04-29T06:25:50.177Z,17.90
2023-04-29T06:28:17.820Z,16.97
2023-04-29T06:30:45.741Z,16.40
2023-04-29T06:33:12.525Z,16.27
2023-04-29T06:35:39.400Z,16.50
2023-04-29T06:38:08.096Z,14.73
2023-04-29T06:40:34.783Z,16.27
2023-04-29T06:43:02.162Z,15.53
2023-04-29T06:45:28.792Z,13.27
2023-04-29T06:47:55.551Z,13.97
2023-04-29T06:50:22.676Z,13.53
2023-04-29T06:52:49.288Z,14.17
2023-04-29T06:55:15.570Z,13.50
2023-04-29T06:57:41.975Z,14.27
2023-04-29T07:00:08.636Z,13.77
2023-04-29T07:02:35.038Z,12.87
2023-04-29T07:05:01.386Z,12.63
2023-04-29T07:07:28.179Z,12.73
2023-04-29T07:09:54.677Z,12.67
2023-04-29T07:12:21.114Z,13.37
2023-04-29T07:14:47.873Z,12.87
2023-04-29T07:17:14.394Z,15.40
2023-04-29T07:19:40.949Z,15.13
2023-04-29T07:22:07.244Z,16.53
2023-04-29T07:24:33.533Z,17.10
2023-04-29T07:26:59.754Z,16.17
2023-04-29T07:29:26.051Z,16.33
2023-04-29T07:31:52.285Z,16.33
2023-04-29T07:34:18.526Z,17.70
2023-04-29T07:36:44.773Z,16.53
2023-04-29T07:39:12.454Z,16.37
2023-04-29T07:41:38.807Z,16.77
2023-04-29T07:44:05.123Z,16.93
2023-04-29T07:46:31.532Z,16.13
2023-04-29T07:48:58.815Z,16.13
2023-04-29T07:51:25.131Z,15.73
2023-04-29T07:53:51.629Z,14.87
2023-04-29T07:56:18.389Z,14.83
2023-04-29T07:58:44.631Z,14.53
2023-04-29T08:01:12.216Z,14.67
2023-04-29T08:03:41.433Z,15.87
2023-04-29T08:06:08.336Z,15.47
2023-04-29T08:08:34.910Z,13.83
2023-04-29T08:11:01.286Z,13.60
2023-04-29T08:13:27.583Z,12.87
2023-04-29T08:15:54.071Z,13.20
2023-04-29T08:18:21.313Z,12.93
2023-04-29T08:20:49.191Z,12.60
2023-04-29T08:23:15.745Z,11.50
2023-04-29T08:25:43.457Z,11.63
2023-04-29T08:28:10.150Z,11.97
2023-04-29T08:30:40.852Z,12.17
2023-04-29T08:33:07.405Z,12.30
2023-04-29T08:35:33.841Z,11.77
2023-04-29T08:38:00.797Z,12.40
2023-04-29T08:40:27.156Z,12.07
2023-04-29T08:42:54.489Z,12.73
2023-04-29T08:45:23.002Z,12.73
2023-04-29T08:47:51.206Z,12.10
2023-04-29T08:50:18.494Z,11.97
2023-04-29T08:52:44.750Z,11.87
2023-04-29T08:55:10.998Z,11.47
2023-04-29T08:57:40.461Z,12.87
2023-04-29T09:00:10.615Z,12.00
2023-04-29T09:02:56.325Z,13.00
2023-04-29T09:05:24.025Z,13.27
2023-04-29T09:07:51.451Z,12.97
2023-04-29T09:10:18.192Z,13.60
2023-04-29T09:12:44.897Z,13.67
2023-04-29T09:15:11.310Z,12.97
2023-04-29T09:17:48.053Z,13.37
2023-04-29T09:20:20.320Z,13.00
2023-04-29T09:22:57.426Z,14.90
2023-04-29T09:25:23.811Z,14.37
2023-04-29T09:27:50.383Z,15.17
2023-04-29T09:30:16.980Z,15.97
2023-04-29T09:32:44.958Z,17.17
2023-04-29T09:35:29.699Z,16.53
2023-04-29T09:38:08.769Z,16.93
2023-04-29T09:40:43.361Z,18.17
2023-04-29T09:43:18.285Z,18.63
2023-04-29T09:45:46.261Z,19.83
2023-04-29T09:48:13.133Z,18.97
2023-04-29T09:50:40.126Z,20.23
2023-04-29T09:53:10.812Z,20.30
2023-04-29T09:55:58.070Z,21.57
2023-04-29T09:58:37.039Z,21.90
2023-04-29T10:01:04.078Z,24.13
2023-04-29T10:03:32.752Z,23.93
2023-04-29T10:06:00.135Z,24.73
2023-04-29T10:08:27.138Z,24.17
2023-04-29T10:10:57.645Z,26.10
2023-04-29T10:13:26.025Z,26.77
2023-04-29T10:15:55.105Z,27.10
2023-04-29T10:18:22.130Z,29.03
2023-04-29T10:20:48.838Z,30.70
2023-04-29T10:23:15.413Z,30.30
2023-04-29T10:25:42.759Z,29.80
2023-04-29T10:28:14.343Z,32.60
2023-04-29T10:30:42.808Z,30.73
2023-04-29T10:33:10.410Z,30.60
2023-04-29T10:35:37.689Z,32.43
2023-04-29T10:38:10.674Z,31.23
2023-04-29T10:40:41.135Z,31.13
2023-04-29T10:43:07.541Z,30.17
2023-04-29T10:45:37.548Z,31.43
2023-04-29T10:48:06.809Z,31.37
2023-04-29T10:50:33.981Z,29.90
2023-04-29T10:53:03.905Z,27.27
2023-04-29T10:55:30.766Z,27.53
2023-04-29T10:57:57.342Z,25.40
2023-04-29T11:00:26.771Z,25.37
2023-04-29T11:03:00.352Z,23.50
2023-04-29T11:05:30.969Z,24.17
2023-04-29T11:08:13.623Z,24.53
2023-04-29T11:10:43.436Z,23.77
2023-04-29T11:13:26.298Z,23.87
2023-04-29T11:16:05.325Z,23.27
2023-04-29T11:18:32.155Z,23.60
2023-04-29T11:21:04.164Z,23.00
2023-04-29T11:23:30.831Z,22.33
2023-04-29T11:25:57.225Z,21.97
2023-04-29T11:28:27.546Z,21.10
2023-04-29T11:30:53.956Z,21.60
2023-04-29T11:33:20.453Z,20.70
2023-04-29T11:35:47.279Z,20.07
2023-04-29T11:38:13.719Z,19.37
2023-04-29T11:40:48.451Z,19.53
2023-04-29T11:43:18.569Z,17.27
2023-04-29T11:45:46.305Z,17.70
2023-04-29T11:48:19.512Z,17.33
2023-04-29T11:50:46.963Z,16.77
2023-04-29T11:53:13.360Z,16.87
2023-04-29T11:55:41.879Z,17.10
2023-04-29T11:58:08.167Z,17.27
2023-04-29T12:00:34.833Z,17.77
2023-04-29T12:03:01.420Z,17.47
2023-04-29T12:05:27.883Z,16.60
2023-04-29T12:07:57.079Z,16.77
2023-04-29T12:10:23.352Z,16.97
2023-04-29T12:12:49.863Z,16.57
2023-04-29T12:15:16.230Z,16.77
2023-04-29T12:17:42.961Z,15.23
2023-04-29T12:20:10.564Z,15.43
2023-04-29T12:22:37.454Z,15.60
2023-04-29T12:25:04.115Z,14.77
2023-04-29T12:27:30.545Z,14.80
2023-04-29T12:29:57.330Z,15.53
2023-04-29T12:32:24.510Z,15.43
2023-04-29T12:34:52.720Z,15.10
2023-04-29T12:37:22.237Z,14.10
2023-04-29T12:39:49.785Z,14.40
2023-04-29T12:42:17.108Z,14.23
2023-04-29T12:44:47.546Z,13.27
2023-04-29T12:47:14.124Z,13.50
2023-04-29T12:49:44.184Z,12.30
2023-04-29T12:52:10.896Z,11.80
2023-04-29T12:54:37.947Z,10.77
2023-04-29T12:57:04.427Z,10.27
2023-04-29T12:59:30.915Z,9.53
2023-04-29T13:01:57.242Z,9.47
2023-04-29T13:04:23.997Z,9.20
2023-04-29T13:06:54.220Z,8.40
2023-04-29T13:09:28.360Z,8.27
2023-04-29T13:11:54.648Z,7.87
2023-04-29T13:14:21.384Z,7.63
2023-04-29T13:16:47.719Z,6.00
2023-04-29T13:19:30.447Z,6.30
2023-04-29T13:22:00.339Z,6.67
2023-04-29T13:24:27.265Z,5.37
2023-04-29T13:26:54.519Z,5.30
2023-04-29T13:29:20.832Z,5.50
2023-04-29T13:31:47.115Z,5.07
2023-04-29T13:34:13.575Z,4.70
2023-04-29T13:36:39.949Z,5.20
2023-04-29T13:39:09.888Z,4.83
2023-04-29T13:41:36.374Z,4.87
2023-04-29T13:44:03.877Z,5.73
2023-04-29T13:46:32.549Z,5.70
2023-04-29T13:54:48.260Z,6.60
2023-04-29T13:57:29.885Z,7.13
2023-04-29T13:59:42.897Z,7.33
2023-04-29T14:04:43.578Z,7.17
2023-04-29T14:07:10.030Z,7.97
2023-04-29T14:09:36.287Z,7.30
2023-04-29T14:12:02.497Z,7.40
2023-04-29T14:14:28.737Z,7.47
2023-04-29T14:16:55.032Z,7.60
2023-04-29T14:19:21.316Z,7.50
2023-04-29T14:21:47.594Z,7.40
2023-04-29T14:24:13.837Z,7.20
2023-04-29T14:26:40.292Z,7.47
2023-04-29T14:29:07.202Z,7.47
2023-04-29T14:31:38.227Z,7.30
2023-04-29T14:34:05.030Z,8.27
2023-04-29T14:36:32.769Z,7.47
2023-04-29T14:39:00.585Z,7.10
2023-04-29T14:41:27.373Z,7.63
2023-04-29T14:43:54.335Z,7.90
2023-04-29T14:46:22.274Z,7.13
2023-04-29T14:48:49.379Z,7.30
2023-04-29T14:51:15.838Z,7.67
2023-04-29T14:53:42.937Z,7.40
2023-04-29T14:56:09.195Z,7.03
2023-04-29T14:58:35.440Z,6.60
2023-04-29T15:01:01.678Z,6.43
2023-04-29T15:03:27.975Z,6.97
2023-04-29T15:05:55.079Z,5.93
2023-04-29T15:08:21.725Z,6.20
2023-04-29T15:10:48.151Z,5.47
2023-04-29T15:13:14.466Z,5.73
2023-04-29T15:15:40.757Z,6.00
2023-04-29T15:18:08.789Z,6.23
2023-04-29T15:20:36.163Z,6.30
2023-04-29T15:23:04.164Z,5.57
2023-04-29T15:25:30.967Z,6.20
2023-04-29T15:27:59.002Z,6.47
2023-04-29T15:30:26.536Z,5.80
2023-04-29T15:32:53.140Z,5.70
2023-04-29T15:35:19.394Z,5.60
2023-04-29T15:37:45.950Z,6.00
2023-04-29T15:40:12.415Z,6.30
2023-04-29T15:42:38.714Z,5.43
2023-04-29T15:45:06.902Z,6.03
2023-04-29T15:47:33.156Z,5.73
2023-04-29T15:49:59.401Z,5.57
2023-04-29T15:52:25.697Z,5.53
2023-04-29T15:54:52.066Z,6.17
2023-04-29T15:57:18.320Z,5.30
2023-04-29T15:59:44.594Z,5.63
2023-04-29T16:02:11.738Z,5.60
2023-04-29T16:04:38.588Z,5.67
2023-04-29T16:07:05.481Z,5.67
2023-04-29T16:09:34.886Z,5.77
2023-04-29T16:12:02.059Z,5.80
2023-04-29T16:14:28.525Z,5.57
2023-04-29T16:16:55.875Z,6.50
2023-04-29T16:19:22.307Z,6.23
2023-04-29T16:21:48.604Z,6.17
2023-04-29T16:24:15.295Z,6.70
2023-04-29T16:26:41.757Z,6.30
2023-04-29T16:29:08.992Z,6.50
2023-04-29T16:31:35.395Z,7.00
2023-04-29T16:34:03.146Z,6.60
2023-04-29T16:36:30.010Z,6.10
2023-04-29T16:38:57.230Z,6.60
2023-04-29T16:41:24.005Z,7.30
2023-04-29T16:43:50.336Z,6.57
2023-04-29T16:46:16.763Z,6.57
2023-04-29T16:48:43.131Z,6.57
2023-04-29T16:51:09.662Z,5.97
2023-04-29T16:53:36.504Z,6.43
2023-04-29T16:56:03.134Z,6.27
2023-04-29T16:58:30.093Z,6.00
2023-04-29T17:00:56.570Z,4.47
2023-04-29T17:03:22.884Z,4.50
2023-04-29T17:05:49.228Z,3.97
2023-04-29T17:08:15.535Z,4.20
2023-04-29T17:10:41.839Z,4.13
2023-04-29T17:13:08.129Z,4.07
2023-04-29T17:15:34.376Z,4.27
2023-04-29T17:18:00.691Z,3.80
2023-04-29T17:20:27.027Z,3.93
2023-04-29T17:22:53.343Z,3.70
2023-04-29T17:25:22.471Z,3.80
2023-04-29T17:27:48.916Z,3.50
2023-04-29T17:30:15.209Z,3.47
2023-04-29T17:32:43.769Z,3.90
2023-04-29T17:35:10.611Z,3.27
2023-04-29T17:37:36.923Z,3.27
2023-04-29T17:40:03.803Z,3.30
2023-04-29T17:42:30.045Z,3.17
2023-04-29T17:44:56.349Z,3.63
2023-04-29T17:47:23.383Z,2.93
2023-04-29T17:49:51.937Z,3.40
2023-04-29T17:52:21.115Z,3.30
2023-04-29T17:54:48.482Z,3.30
2023-04-29T17:57:14.790Z,3.23
2023-04-29T17:59:41.112Z,3.37
2023-04-29T18:02:07.510Z,3.50
2023-04-29T18:04:33.760Z,3.33
2023-04-29T18:06:59.994Z,2.97
2023-04-29T18:09:26.526Z,3.23
2023-04-29T18:11:52.818Z,3.20
2023-04-29T18:14:19.113Z,3.10
2023-04-29T18:16:45.377Z,3.27
2023-04-29T18:19:12.292Z,3.40
2023-04-29T18:21:38.553Z,3.40
2023-04-29T18:24:05.170Z,3.43
2023-04-29T18:26:31.441Z,3.30
2023-04-29T18:28:57.728Z,4.23
2023-04-29T18:31:26.316Z,3.50
2023-04-29T18:33:52.725Z,3.43
2023-04-29T18:36:21.272Z,4.13
2023-04-29T18:38:47.721Z,2.90
2023-04-29T18:41:14.451Z,3.47
2023-04-29T18:43:41.100Z,3.00
2023-04-29T18:46:07.434Z,3.10
2023-04-29T18:48:35.704Z,3.60
2023-04-29T18:51:04.234Z,3.87
2023-04-29T18:53:30.856Z,3.53
2023-04-29T18:55:57.098Z,3.57
2023-04-29T18:58:25.935Z,3.20
2023-04-29T19:00:52.191Z,3.70
2023-04-29T19:03:18.433Z,3.10
2023-04-29T19:05:45.679Z,3.37
2023-04-29T19:08:15.307Z,3.37
2023-04-29T19:10:41.736Z,3.00
2023-04-29T19:13:08.023Z,3.30
2023-04-29T19:15:34.374Z,3.90
2023-04-29T19:18:00.723Z,3.57
2023-04-29T19:20:27.394Z,2.90
2023-04-29T19:22:53.674Z,3.00
2023-04-29T19:25:21.112Z,3.27
2023-04-29T19:27:48.964Z,3.10
2023-04-29T19:30:16.451Z,3.80
2023-04-29T19:32:42.766Z,3.88
2023-04-29T19:35:09.183Z,4.40
2023-04-29T19:37:35.600Z,3.60
2023-04-29T19:40:01.906Z,3.47
2023-04-29T19:42:28.263Z,3.30
2023-04-29T19:44:54.504Z,3.97
2023-04-29T19:47:21.679Z,4.00
2023-04-29T19:49:49.221Z,3.70
2023-04-29T19:52:15.552Z,3.73
2023-04-29T19:54:41.816Z,3.87
2023-04-29T19:57:08.108Z,3.83
2023-04-29T19:59:34.651Z,4.00
2023-04-29T20:02:01.023Z,3.90
2023-04-29T20:04:27.770Z,4.40
2023-04-29T20:06:54.023Z,3.90
2023-04-29T20:09:20.385Z,4.00
2023-04-29T20:11:46.925Z,4.07
2023-04-29T20:14:13.173Z,4.07
2023-04-29T20:16:39.536Z,4.30
2023-04-29T20:19:05.836Z,4.20
2023-04-29T20:21:32.579Z,4.30
2023-04-29T20:23:59.086Z,4.47
2023-04-29T20:26:25.448Z,4.40
2023-04-29T20:28:51.711Z,4.93
2023-04-29T20:31:18.170Z,4.90
2023-04-29T20:33:44.401Z,4.90
2023-04-29T20:36:11.074Z,4.77
2023-04-29T20:38:37.490Z,5.20
2023-04-29T20:41:05.565Z,4.93
2023-04-29T20:43:32.210Z,5.10
2023-04-29T20:46:00.360Z,5.10
2023-04-29T20:48:27.645Z,4.67
2023-04-29T20:50:53.974Z,5.13
2023-04-29T20:53:20.223Z,4.93
2023-04-29T20:55:46.612Z,4.57
2023-04-29T20:58:12.918Z,5.03
2023-04-29T21:00:40.595Z,5.17
2023-04-29T21:03:07.642Z,4.83
2023-04-29T21:05:34.023Z,5.60
2023-04-29T21:08:00.268Z,5.23
2023-04-29T21:10:26.602Z,5.50
2023-04-29T21:12:52.857Z,5.70
2023-04-29T21:15:19.275Z,5.73
2023-04-29T21:17:45.981Z,5.47
2023-04-29T21:20:12.420Z,5.70
2023-04-29T21:22:39.076Z,6.27
2023-04-29T21:25:05.468Z,5.60
2023-04-29T21:27:31.695Z,5.77
2023-04-29T21:32:47.948Z,6.07
2023-04-29T21:35:14.258Z,5.63
2023-04-29T21:37:41.263Z,5.70
2023-04-29T21:40:07.782Z,5.53
2023-04-29T21:42:34.690Z,5.47
2023-04-29T21:45:01.617Z,5.40
2023-04-29T21:47:29.114Z,5.60
2023-04-29T21:49:55.901Z,5.20
2023-04-29T21:52:22.575Z,5.00
2023-04-29T21:54:48.829Z,4.90
2023-04-29T21:57:15.065Z,5.10
2023-04-29T21:59:41.363Z,5.13
2023-04-29T22:02:22.903Z,4.73
2023-04-29T22:04:50.353Z,5.17
2023-04-29T22:07:17.026Z,5.50
2023-04-29T22:09:47.089Z,5.50
2023-04-29T22:12:13.316Z,5.40
2023-04-29T22:14:39.578Z,5.03
2023-04-29T22:17:05.984Z,5.13
2023-04-29T22:19:32.262Z,4.70
2023-04-29T22:21:58.545Z,4.37
2023-04-29T22:24:24.792Z,4.33
2023-04-29T22:26:51.037Z,4.70
2023-04-29T22:29:19.184Z,4.83
2023-04-29T22:31:45.504Z,4.20
2023-04-29T22:34:11.788Z,3.90
2023-04-29T22:36:39.885Z,3.40
2023-04-29T22:39:06.730Z,3.83
2023-04-29T22:41:33.559Z,3.60
2023-04-29T22:43:59.868Z,3.50
2023-04-29T22:46:26.364Z,3.57
2023-04-29T22:48:52.742Z,3.10
2023-04-29T22:51:19.980Z,3.23
2023-04-29T22:53:46.726Z,2.70
2023-04-29T22:56:12.969Z,3.30
2023-04-29T22:58:40.557Z,2.53
2023-04-29T23:01:06.813Z,2.80
2023-04-29T23:03:33.104Z,2.40
2023-04-29T23:05:59.986Z,2.73
2023-04-29T23:08:27.307Z,2.67
2023-04-29T23:10:53.687Z,2.50
2023-04-29T23:13:19.971Z,2.40
2023-04-29T23:15:46.285Z,2.17
2023-04-29T23:18:12.635Z,2.83
2023-04-29T23:20:38.871Z,2.00
2023-04-29T23:23:05.446Z,2.60
2023-04-29T23:25:31.736Z,1.93
2023-04-29T23:27:58.050Z,2.70
2023-04-29T23:30:24.310Z,2.10
2023-04-29T23:32:50.631Z,2.37
2023-04-29T23:35:17.011Z,2.03
2023-04-29T23:37:43.415Z,1.80
2023-04-29T23:40:09.875Z,2.00
2023-04-29T23:42:36.155Z,1.80
2023-04-29T23:45:02.406Z,1.90
2023-04-29T23:47:28.705Z,1.80
2023-04-29T23:49:55.224Z,2.53
2023-04-29T23:52:21.774Z,1.90
2023-04-29T23:54:47.997Z,1.90
2023-04-29T23:57:14.263Z,2.10
2023-04-29T23:59:42.415Z,1.77
